createdAt,value
2019-06-01T00:01:50.270Z,69.02
2019-06-01T00:06:54.308Z,69.02
2019-06-01T00:11:58.457Z,69.10
2019-06-01T00:17:02.509Z,69.04
2019-06-01T00:22:06.694Z,69.04
2019-06-01T00:27:10.778Z,69.19
2019-06-01T00:32:14.793Z,68.87
2019-06-01T00:37:18.857Z,69.30
2019-06-01T00:42:22.888Z,69.36
2019-06-01T00:47:27.044Z,69.41
2019-06-01T00:52:31.056Z,69.26
2019-06-01T00:57:35.322Z,69.14
2019-06-01T01:02:39.334Z,69.14
2019-06-01T01:07:44.507Z,69.39
2019-06-01T01:13:10.291Z,69.66
2019-06-01T01:18:14.298Z,69.38
2019-06-01T01:23:18.334Z,69.38
2019-06-01T01:28:24.002Z,69.25
2019-06-01T01:33:28.234Z,69.19
2019-06-01T01:38:32.263Z,69.54
2019-06-01T01:43:36.301Z,69.43
2019-06-01T01:48:40.341Z,69.66
2019-06-01T01:53:44.387Z,69.67
2019-06-01T01:58:48.501Z,69.67
2019-06-01T02:03:53.667Z,69.60
2019-06-01T02:08:59.365Z,69.60
2019-06-01T02:14:03.625Z,69.91
2019-06-01T02:19:07.871Z,69.73
2019-06-01T02:24:11.878Z,69.95
2019-06-01T02:29:16.102Z,70.09
2019-06-01T02:34:20.343Z,69.85
2019-06-01T02:39:24.485Z,69.84
2019-06-01T02:44:29.030Z,69.84
2019-06-01T02:49:33.217Z,69.88
2019-06-01T02:54:37.467Z,69.76
2019-06-01T02:59:41.717Z,69.76
2019-06-01T03:04:46.069Z,69.78
2019-06-01T03:09:50.655Z,69.74
2019-06-01T03:14:58.306Z,69.63
2019-06-01T03:20:06.298Z,69.63
2019-06-01T03:25:12.252Z,69.32
2019-06-01T03:30:20.465Z,69.52
2019-06-01T03:35:24.718Z,69.40
2019-06-01T03:40:28.994Z,69.26
2019-06-01T03:45:33.272Z,69.26
2019-06-01T03:50:37.459Z,69.19
2019-06-01T03:55:41.583Z,69.19
2019-06-01T04:00:45.797Z,69.00
2019-06-01T04:05:49.951Z,69.08
2019-06-01T04:10:55.365Z,69.20
2019-06-01T04:15:59.595Z,69.20
2019-06-01T04:21:04.229Z,69.15
2019-06-01T04:26:08.482Z,68.91
2019-06-01T04:31:12.903Z,69.03
2019-06-01T04:36:17.046Z,69.02
2019-06-01T04:41:21.267Z,68.95
2019-06-01T04:46:25.571Z,68.84
2019-06-01T04:51:29.885Z,68.67
2019-06-01T04:56:34.133Z,68.72
2019-06-01T05:01:38.512Z,68.72
2019-06-01T05:06:42.549Z,68.56
2019-06-01T05:11:46.816Z,68.59
2019-06-01T05:16:50.985Z,68.63
2019-06-01T05:21:55.184Z,68.92
2019-06-01T05:26:59.411Z,68.93
2019-06-01T05:32:03.587Z,69.10
2019-06-01T05:37:08.522Z,69.19
2019-06-01T05:42:12.730Z,69.07
2019-06-01T05:47:18.319Z,69.39
2019-06-01T05:52:23.051Z,69.16
2019-06-01T05:57:27.246Z,69.18
2019-06-01T06:02:31.300Z,69.52
2019-06-01T06:07:35.543Z,69.49
2019-06-01T06:12:39.674Z,69.58
2019-06-01T06:17:43.795Z,69.61
2019-06-01T06:22:48.046Z,69.63
2019-06-01T06:27:52.088Z,69.63
2019-06-01T06:32:56.269Z,69.84
2019-06-01T06:38:00.401Z,69.79
2019-06-01T06:43:18.609Z,69.74
2019-06-01T06:48:10.469Z,69.79
2019-06-01T06:53:25.520Z,70.07
2019-06-01T06:58:21.020Z,69.99
2019-06-01T07:03:25.611Z,72.60
2019-06-01T07:08:29.686Z,73.57
2019-06-01T07:13:33.718Z,74.22
2019-06-01T07:18:37.735Z,74.36
2019-06-01T07:23:41.830Z,74.63
2019-06-01T07:28:45.824Z,74.85
2019-06-01T07:33:49.854Z,74.85
2019-06-01T07:38:53.848Z,75.39
2019-06-01T07:43:57.879Z,75.16
2019-06-01T07:49:01.887Z,75.43
2019-06-01T07:54:06.516Z,76.37
2019-06-01T07:59:10.602Z,74.50
2019-06-01T08:04:14.893Z,75.22
2019-06-01T08:09:18.967Z,75.46
2019-06-01T08:14:23.035Z,75.46
2019-06-01T08:19:28.201Z,75.25
2019-06-01T08:24:32.467Z,76.89
2019-06-01T08:29:36.539Z,76.89
2019-06-01T08:34:40.620Z,74.01
2019-06-01T08:39:44.685Z,74.14
2019-06-01T08:44:48.691Z,74.16
2019-06-01T08:49:52.690Z,73.55
2019-06-01T08:54:56.703Z,74.33
2019-06-01T09:00:00.818Z,73.40
2019-06-01T11:00:37.144Z,64.85
2019-06-01T11:05:26.086Z,65.16
2019-06-01T11:10:30.152Z,65.47
2019-06-01T11:15:35.099Z,65.90
2019-06-01T11:20:39.421Z,66.35
2019-06-01T11:25:43.800Z,66.92
2019-06-01T11:30:47.785Z,66.73
2019-06-01T11:35:51.858Z,66.73
2019-06-01T11:40:55.850Z,66.21
2019-06-01T11:46:00.138Z,66.24
2019-06-01T11:51:04.773Z,66.82
2019-06-01T11:56:08.865Z,66.67
2019-06-01T12:01:12.908Z,66.73
2019-06-01T12:06:16.913Z,67.05
2019-06-01T12:11:20.940Z,66.04
2019-06-01T12:16:25.525Z,66.31
2019-06-01T12:21:29.538Z,66.09
2019-06-01T12:26:33.613Z,65.83
2019-06-01T12:31:37.729Z,65.83
2019-06-01T12:36:42.714Z,66.02
2019-06-01T12:41:47.798Z,64.99
2019-06-01T12:46:53.050Z,64.99
2019-06-01T12:51:57.304Z,65.55
2019-06-01T12:57:01.474Z,65.87
2019-06-01T13:02:05.573Z,65.87
2019-06-01T13:07:10.097Z,65.84
2019-06-01T13:12:14.368Z,65.59
2019-06-01T14:10:51.270Z,66.19
2019-06-01T14:15:55.682Z,65.69
2019-06-01T14:20:59.683Z,65.63
2019-06-01T14:26:03.896Z,66.27
2019-06-01T14:31:07.937Z,66.50
2019-06-01T14:36:12.043Z,66.31
2019-06-01T14:41:16.132Z,66.31
2019-06-01T14:46:20.223Z,66.26
2019-06-01T14:51:24.248Z,66.53
2019-06-01T14:56:28.286Z,66.53
2019-06-01T15:01:33.302Z,66.31
2019-06-01T15:06:37.467Z,66.31
2019-06-01T15:11:41.562Z,66.45
2019-06-01T15:16:45.699Z,66.41
2019-06-01T15:21:50.036Z,66.21
2019-06-01T15:26:54.654Z,65.50
2019-06-01T15:32:00.164Z,66.16
2019-06-01T15:37:04.407Z,66.16
2019-06-01T15:42:08.526Z,66.75
2019-06-01T15:47:12.649Z,66.50
2019-06-01T15:52:16.679Z,66.57
2019-06-01T15:57:20.768Z,65.26
2019-06-01T16:02:24.791Z,65.85
2019-06-01T16:07:28.871Z,65.31
2019-06-01T16:12:33.015Z,65.64
2019-06-01T16:17:37.109Z,65.31
2019-06-01T16:22:41.234Z,65.95
2019-06-01T16:27:45.253Z,66.00
2019-06-01T16:32:49.364Z,66.00
2019-06-01T16:37:54.854Z,64.96
2019-06-01T16:43:01.465Z,65.39
2019-06-01T16:48:06.607Z,66.00
2019-06-01T16:53:10.791Z,65.34
2019-06-01T16:58:14.889Z,65.25
2019-06-01T17:03:18.909Z,65.50
2019-06-01T17:08:23.034Z,65.46
2019-06-01T17:13:27.114Z,65.51
2019-06-01T17:18:31.224Z,65.51
2019-06-01T17:23:35.241Z,65.62
2019-06-01T17:28:39.322Z,65.90
2019-06-01T17:33:43.520Z,65.55
2019-06-01T17:38:47.717Z,65.55
2019-06-01T17:43:51.830Z,65.67
2019-06-01T17:48:56.064Z,65.67
2019-06-01T17:54:02.230Z,65.71
2019-06-01T17:59:06.022Z,66.64
2019-06-01T18:04:10.145Z,67.15
2019-06-01T18:09:14.260Z,67.66
2019-06-01T18:14:18.811Z,68.06
2019-06-01T18:19:22.914Z,68.66
2019-06-01T18:24:26.980Z,68.11
2019-06-01T18:29:30.981Z,68.11
2019-06-01T18:34:35.147Z,69.16
2019-06-01T18:39:39.232Z,67.59
2019-06-01T18:44:43.371Z,66.77
2019-06-01T18:49:47.464Z,66.67
2019-06-01T18:54:51.498Z,67.03
2019-06-01T18:59:55.597Z,67.50
2019-06-01T19:04:59.830Z,67.60
2019-06-01T19:10:05.247Z,67.79
2019-06-01T19:15:23.595Z,67.92
2019-06-01T19:20:17.140Z,67.75
2019-06-01T19:25:21.558Z,68.06
2019-06-01T19:30:40.150Z,68.06
2019-06-01T19:35:44.636Z,65.41
2019-06-01T19:40:48.734Z,67.17
2019-06-01T19:45:52.811Z,67.33
2019-06-01T19:50:56.819Z,67.29
2019-06-01T19:56:00.891Z,67.29
2019-06-01T20:01:05.158Z,66.68
2019-06-01T20:06:10.578Z,67.22
2019-06-01T20:11:15.088Z,67.13
2019-06-01T20:16:20.150Z,66.66
2019-06-01T20:21:24.559Z,66.32
2019-06-01T20:26:40.364Z,66.87
2019-06-01T20:31:34.441Z,66.71
2019-06-01T20:36:38.463Z,66.72
2019-06-01T20:41:42.491Z,66.49
2019-06-01T20:46:46.516Z,65.98
2019-06-01T20:51:50.543Z,66.81
2019-06-01T20:56:54.727Z,66.81
2019-06-01T21:01:58.837Z,66.65
2019-06-01T21:07:02.853Z,66.65
2019-06-01T21:12:06.959Z,66.83
2019-06-01T21:17:10.981Z,67.02
2019-06-01T21:22:14.990Z,67.15
2019-06-01T21:27:19.019Z,67.15
2019-06-01T21:32:23.652Z,67.06
2019-06-01T21:37:27.728Z,67.19
2019-06-01T21:42:31.758Z,67.20
2019-06-01T21:47:35.853Z,67.33
2019-06-01T21:52:39.851Z,67.23
2019-06-01T21:57:43.868Z,67.15
2019-06-01T22:02:47.947Z,66.96
2019-06-01T22:07:52.053Z,66.96
2019-06-01T22:12:56.296Z,67.17
2019-06-01T22:18:00.743Z,67.17
2019-06-01T22:23:04.931Z,66.89
2019-06-01T22:28:08.951Z,67.00
2019-06-01T22:33:13.031Z,67.02
2019-06-01T22:38:17.049Z,66.70
2019-06-01T22:43:37.088Z,66.70
2019-06-01T22:48:26.953Z,67.24
2019-06-01T22:53:32.368Z,67.24
2019-06-01T22:58:36.564Z,67.26
2019-06-01T23:03:40.705Z,67.36
2019-06-01T23:08:44.735Z,67.40
2019-06-01T23:13:53.432Z,67.18
2019-06-01T23:18:54.627Z,67.42
2019-06-01T23:23:58.740Z,67.37
2019-06-01T23:29:02.995Z,67.37
2019-06-01T23:34:07.242Z,67.72
2019-06-01T23:39:11.252Z,67.55
2019-06-01T23:44:15.355Z,67.59
2019-06-01T23:49:19.367Z,67.59
2019-06-01T23:54:23.617Z,67.76
2019-06-01T23:59:29.168Z,67.76
